sensor_id;sensor_type;location;lat;lon;timestamp;pressure;altitude;pressure_sealevel;temperature;humidity
59545;BME280;45368;55.002;-1.592;2023-05-12T00:00:59;101690.36;;;13.13;57.49
59545;BME280;45368;55.002;-1.592;2023-05-12T00:03:26;101695.19;;;13.06;57.92
59545;BME280;45368;55.002;-1.592;2023-05-12T00:05:54;101702.52;;;13.44;57.91
59545;BME280;45368;55.002;-1.592;2023-05-12T00:08:21;101704.15;;;13.33;57.21
59545;BME280;45368;55.002;-1.592;2023-05-12T00:10:48;101704.96;;;13.92;56.19
59545;BME280;45368;55.002;-1.592;2023-05-12T00:13:16;101708.67;;;14.24;55.46
59545;BME280;45368;55.002;-1.592;2023-05-12T00:15:43;101710.98;;;13.55;56.64
59545;BME280;45368;55.002;-1.592;2023-05-12T00:18:11;101711.60;;;14.21;55.63
59545;BME280;45368;55.002;-1.592;2023-05-12T00:20:38;101715.53;;;13.61;55.44
59545;BME280;45368;55.002;-1.592;2023-05-12T00:23:05;101723.74;;;12.56;58.57
59545;BME280;45368;55.002;-1.592;2023-05-12T00:25:33;101720.21;;;13.46;57.04
59545;BME280;45368;55.002;-1.592;2023-05-12T00:27:59;101726.96;;;13.05;57.83
59545;BME280;45368;55.002;-1.592;2023-05-12T00:30:26;101727.25;;;13.44;56.91
59545;BME280;45368;55.002;-1.592;2023-05-12T00:32:54;101726.48;;;13.18;56.81
59545;BME280;45368;55.002;-1.592;2023-05-12T00:35:21;101725.39;;;13.73;56.04
59545;BME280;45368;55.002;-1.592;2023-05-12T00:37:48;101736.65;;;12.51;58.64
59545;BME280;45368;55.002;-1.592;2023-05-12T00:40:15;101737.14;;;12.83;59.10
59545;BME280;45368;55.002;-1.592;2023-05-12T00:42:42;101736.46;;;12.59;59.84
59545;BME280;45368;55.002;-1.592;2023-05-12T00:45:10;101738.69;;;12.34;60.04
59545;BME280;45368;55.002;-1.592;2023-05-12T00:47:37;101735.62;;;12.49;59.57
59545;BME280;45368;55.002;-1.592;2023-05-12T00:50:06;101732.67;;;13.20;57.57
59545;BME280;45368;55.002;-1.592;2023-05-12T00:52:33;101737.68;;;12.60;58.26
59545;BME280;45368;55.002;-1.592;2023-05-12T00:55:02;101738.70;;;13.21;57.49
59545;BME280;45368;55.002;-1.592;2023-05-12T00:57:29;101741.25;;;13.10;57.45
59545;BME280;45368;55.002;-1.592;2023-05-12T00:59:57;101744.10;;;13.54;56.60
59545;BME280;45368;55.002;-1.592;2023-05-12T01:02:24;101742.08;;;13.71;56.37
59545;BME280;45368;55.002;-1.592;2023-05-12T01:04:51;101738.62;;;13.79;56.02
59545;BME280;45368;55.002;-1.592;2023-05-12T01:07:20;101739.27;;;13.48;56.12
59545;BME280;45368;55.002;-1.592;2023-05-12T01:09:53;101742.40;;;14.01;55.16
59545;BME280;45368;55.002;-1.592;2023-05-12T01:12:20;101748.59;;;13.97;55.08
59545;BME280;45368;55.002;-1.592;2023-05-12T01:14:47;101744.29;;;14.51;54.15
59545;BME280;45368;55.002;-1.592;2023-05-12T01:17:18;101749.69;;;13.63;55.12
59545;BME280;45368;55.002;-1.592;2023-05-12T01:19:48;101744.98;;;13.74;55.69
59545;BME280;45368;55.002;-1.592;2023-05-12T01:22:16;101750.00;;;13.62;56.29
59545;BME280;45368;55.002;-1.592;2023-05-12T01:24:47;101756.32;;;13.68;56.03
59545;BME280;45368;55.002;-1.592;2023-05-12T01:27:16;101758.52;;;13.33;56.70
59545;BME280;45368;55.002;-1.592;2023-05-12T01:29:45;101767.42;;;12.44;58.58
59545;BME280;45368;55.002;-1.592;2023-05-12T01:32:13;101767.40;;;13.08;58.11
59545;BME280;45368;55.002;-1.592;2023-05-12T01:34:41;101769.96;;;12.94;57.76
59545;BME280;45368;55.002;-1.592;2023-05-12T01:37:09;101766.61;;;13.75;56.37
59545;BME280;45368;55.002;-1.592;2023-05-12T01:39:36;101774.11;;;12.65;58.12
59545;BME280;45368;55.002;-1.592;2023-05-12T01:42:04;101777.91;;;13.16;58.52
59545;BME280;45368;55.002;-1.592;2023-05-12T01:44:31;101783.04;;;12.86;58.07
59545;BME280;45368;55.002;-1.592;2023-05-12T01:47:00;101779.91;;;13.22;57.44
59545;BME280;45368;55.002;-1.592;2023-05-12T01:49:27;101785.38;;;12.66;58.49
59545;BME280;45368;55.002;-1.592;2023-05-12T01:51:55;101784.29;;;12.91;58.21
59545;BME280;45368;55.002;-1.592;2023-05-12T01:54:22;101786.91;;;12.83;57.86
59545;BME280;45368;55.002;-1.592;2023-05-12T01:56:49;101793.44;;;12.79;59.27
59545;BME280;45368;55.002;-1.592;2023-05-12T01:59:16;101791.99;;;13.41;57.21
59545;BME280;45368;55.002;-1.592;2023-05-12T02:01:43;101788.51;;;13.37;57.81
59545;BME280;45368;55.002;-1.592;2023-05-12T02:04:10;101799.26;;;11.59;61.45
59545;BME280;45368;55.002;-1.592;2023-05-12T02:06:38;101791.11;;;12.61;59.24
59545;BME280;45368;55.002;-1.592;2023-05-12T02:09:05;101789.92;;;13.13;58.51
59545;BME280;45368;55.002;-1.592;2023-05-12T02:11:32;101793.89;;;12.05;60.61
59545;BME280;45368;55.002;-1.592;2023-05-12T02:13:59;101790.66;;;13.28;58.22
59545;BME280;45368;55.002;-1.592;2023-05-12T02:16:26;101792.63;;;13.38;57.68
59545;BME280;45368;55.002;-1.592;2023-05-12T02:18:53;101803.49;;;12.16;60.06
59545;BME280;45368;55.002;-1.592;2023-05-12T02:21:21;101799.14;;;12.45;59.57
59545;BME280;45368;55.002;-1.592;2023-05-12T02:23:48;101802.27;;;12.12;61.13
59545;BME280;45368;55.002;-1.592;2023-05-12T02:26:15;101805.54;;;11.45;62.50
59545;BME280;45368;55.002;-1.592;2023-05-12T02:28:42;101802.57;;;11.83;61.88
59545;BME280;45368;55.002;-1.592;2023-05-12T02:31:09;101804.54;;;11.73;61.34
59545;BME280;45368;55.002;-1.592;2023-05-12T02:33:36;101801.02;;;11.81;61.55
59545;BME280;45368;55.002;-1.592;2023-05-12T02:36:04;101801.90;;;11.79;61.33
59545;BME280;45368;55.002;-1.592;2023-05-12T02:38:31;101808.31;;;11.98;61.57
59545;BME280;45368;55.002;-1.592;2023-05-12T02:40:59;101812.61;;;11.99;61.95
59545;BME280;45368;55.002;-1.592;2023-05-12T02:43:26;101814.82;;;12.23;61.15
59545;BME280;45368;55.002;-1.592;2023-05-12T02:45:54;101821.43;;;11.48;62.76
59545;BME280;45368;55.002;-1.592;2023-05-12T02:48:21;101825.04;;;11.90;61.89
59545;BME280;45368;55.002;-1.592;2023-05-12T02:50:48;101825.53;;;11.57;62.70
59545;BME280;45368;55.002;-1.592;2023-05-12T02:53:15;101823.99;;;11.85;61.27
59545;BME280;45368;55.002;-1.592;2023-05-12T02:55:42;101829.99;;;10.48;65.08
59545;BME280;45368;55.002;-1.592;2023-05-12T02:58:09;101833.55;;;11.54;62.77
59545;BME280;45368;55.002;-1.592;2023-05-12T03:00:36;101832.76;;;10.33;66.13
59545;BME280;45368;55.002;-1.592;2023-05-12T03:03:03;101831.10;;;12.21;61.84
59545;BME280;45368;55.002;-1.592;2023-05-12T03:05:29;101829.15;;;12.09;62.15
59545;BME280;45368;55.002;-1.592;2023-05-12T03:07:56;101830.83;;;11.82;62.37
59545;BME280;45368;55.002;-1.592;2023-05-12T03:10:24;101833.00;;;12.27;61.50
59545;BME280;45368;55.002;-1.592;2023-05-12T03:12:51;101837.75;;;11.80;62.61
59545;BME280;45368;55.002;-1.592;2023-05-12T03:15:18;101842.57;;;11.20;63.80
59545;BME280;45368;55.002;-1.592;2023-05-12T03:17:45;101840.66;;;11.10;63.98
59545;BME280;45368;55.002;-1.592;2023-05-12T03:20:12;101839.68;;;11.28;63.83
59545;BME280;45368;55.002;-1.592;2023-05-12T03:22:39;101843.53;;;10.73;63.56
59545;BME280;45368;55.002;-1.592;2023-05-12T03:25:09;101839.43;;;10.30;65.54
59545;BME280;45368;55.002;-1.592;2023-05-12T03:27:36;101840.13;;;10.37;65.30
59545;BME280;45368;55.002;-1.592;2023-05-12T03:30:04;101834.96;;;10.98;63.52
59545;BME280;45368;55.002;-1.592;2023-05-12T03:32:31;101834.12;;;11.78;61.13
59545;BME280;45368;55.002;-1.592;2023-05-12T03:34:58;101835.14;;;11.72;61.97
59545;BME280;45368;55.002;-1.592;2023-05-12T03:37:25;101839.77;;;11.65;61.30
59545;BME280;45368;55.002;-1.592;2023-05-12T03:39:53;101841.25;;;11.76;60.43
59545;BME280;45368;55.002;-1.592;2023-05-12T03:42:19;101845.27;;;12.01;60.57
59545;BME280;45368;55.002;-1.592;2023-05-12T03:44:46;101845.11;;;12.06;59.74
59545;BME280;45368;55.002;-1.592;2023-05-12T03:47:13;101851.56;;;11.35;60.65
59545;BME280;45368;55.002;-1.592;2023-05-12T03:49:41;101852.82;;;11.54;60.43
59545;BME280;45368;55.002;-1.592;2023-05-12T03:52:08;101852.53;;;11.61;60.70
59545;BME280;45368;55.002;-1.592;2023-05-12T03:54:35;101862.80;;;9.93;65.80
59545;BME280;45368;55.002;-1.592;2023-05-12T03:57:02;101862.70;;;10.26;64.58
59545;BME280;45368;55.002;-1.592;2023-05-12T03:59:30;101864.81;;;10.90;63.25
59545;BME280;45368;55.002;-1.592;2023-05-12T04:01:58;101868.44;;;11.19;62.45
59545;BME280;45368;55.002;-1.592;2023-05-12T04:04:26;101871.59;;;10.50;63.38
59545;BME280;45368;55.002;-1.592;2023-05-12T04:06:53;101873.78;;;10.64;63.16
59545;BME280;45368;55.002;-1.592;2023-05-12T04:09:20;101876.20;;;10.40;62.58
59545;BME280;45368;55.002;-1.592;2023-05-12T04:11:47;101880.33;;;10.55;62.23
59545;BME280;45368;55.002;-1.592;2023-05-12T04:14:13;101882.06;;;10.49;62.95
59545;BME280;45368;55.002;-1.592;2023-05-12T04:16:40;101887.82;;;10.27;63.15
59545;BME280;45368;55.002;-1.592;2023-05-12T04:19:07;101891.68;;;10.11;63.96
59545;BME280;45368;55.002;-1.592;2023-05-12T04:21:34;101896.98;;;9.79;64.59
59545;BME280;45368;55.002;-1.592;2023-05-12T04:24:01;101902.73;;;9.87;64.86
59545;BME280;45368;55.002;-1.592;2023-05-12T04:26:28;101903.51;;;9.90;64.69
59545;BME280;45368;55.002;-1.592;2023-05-12T04:28:55;101908.88;;;10.20;64.26
59545;BME280;45368;55.002;-1.592;2023-05-12T04:31:22;101907.75;;;10.09;64.05
59545;BME280;45368;55.002;-1.592;2023-05-12T04:33:49;101907.16;;;10.51;62.35
59545;BME280;45368;55.002;-1.592;2023-05-12T04:36:16;101906.86;;;10.29;62.93
59545;BME280;45368;55.002;-1.592;2023-05-12T04:38:44;101913.87;;;10.97;61.34
59545;BME280;45368;55.002;-1.592;2023-05-12T04:41:11;101917.47;;;11.07;61.35
59545;BME280;45368;55.002;-1.592;2023-05-12T04:43:38;101921.45;;;10.80;61.74
59545;BME280;45368;55.002;-1.592;2023-05-12T04:46:06;101926.60;;;10.92;61.59
59545;BME280;45368;55.002;-1.592;2023-05-12T04:48:32;101934.95;;;10.45;63.88
59545;BME280;45368;55.002;-1.592;2023-05-12T04:51:00;101939.45;;;9.19;66.67
59545;BME280;45368;55.002;-1.592;2023-05-12T04:53:27;101937.77;;;9.47;66.65
59545;BME280;45368;55.002;-1.592;2023-05-12T04:55:54;101942.57;;;10.27;64.15
59545;BME280;45368;55.002;-1.592;2023-05-12T04:58:21;101945.24;;;9.72;64.48
59545;BME280;45368;55.002;-1.592;2023-05-12T05:00:48;101949.70;;;10.04;64.25
59545;BME280;45368;55.002;-1.592;2023-05-12T05:03:15;101958.37;;;9.62;65.48
59545;BME280;45368;55.002;-1.592;2023-05-12T05:05:42;101958.14;;;9.19;66.27
59545;BME280;45368;55.002;-1.592;2023-05-12T05:08:09;101961.35;;;10.32;64.02
59545;BME280;45368;55.002;-1.592;2023-05-12T05:10:36;101972.06;;;9.38;64.96
59545;BME280;45368;55.002;-1.592;2023-05-12T05:13:04;101972.68;;;9.97;64.40
59545;BME280;45368;55.002;-1.592;2023-05-12T05:15:31;101975.34;;;9.84;65.33
59545;BME280;45368;55.002;-1.592;2023-05-12T05:17:58;101975.36;;;9.48;64.90
59545;BME280;45368;55.002;-1.592;2023-05-12T05:20:25;101975.71;;;9.95;64.05
59545;BME280;45368;55.002;-1.592;2023-05-12T05:22:52;101981.60;;;9.20;65.92
59545;BME280;45368;55.002;-1.592;2023-05-12T05:25:19;101984.38;;;9.48;65.81
59545;BME280;45368;55.002;-1.592;2023-05-12T05:27:47;101993.86;;;9.31;66.75
59545;BME280;45368;55.002;-1.592;2023-05-12T05:30:14;101985.27;;;10.20;63.64
59545;BME280;45368;55.002;-1.592;2023-05-12T05:32:40;101991.55;;;9.86;65.05
59545;BME280;45368;55.002;-1.592;2023-05-12T05:35:08;101994.39;;;9.08;66.56
59545;BME280;45368;55.002;-1.592;2023-05-12T05:37:35;101995.62;;;9.58;65.12
59545;BME280;45368;55.002;-1.592;2023-05-12T05:40:02;102003.92;;;9.28;65.24
59545;BME280;45368;55.002;-1.592;2023-05-12T05:42:30;102006.25;;;9.65;64.99
59545;BME280;45368;55.002;-1.592;2023-05-12T05:44:57;102011.47;;;9.09;66.82
59545;BME280;45368;55.002;-1.592;2023-05-12T05:47:24;102016.00;;;8.37;68.67
59545;BME280;45368;55.002;-1.592;2023-05-12T05:49:50;102017.85;;;9.35;66.63
59545;BME280;45368;55.002;-1.592;2023-05-12T05:52:17;102022.83;;;9.00;67.58
59545;BME280;45368;55.002;-1.592;2023-05-12T05:54:44;102026.53;;;9.44;66.47
59545;BME280;45368;55.002;-1.592;2023-05-12T05:57:11;102034.00;;;8.64;67.54
59545;BME280;45368;55.002;-1.592;2023-05-12T05:59:38;102034.53;;;8.79;66.44
59545;BME280;45368;55.002;-1.592;2023-05-12T06:02:06;102042.90;;;8.52;68.04
59545;BME280;45368;55.002;-1.592;2023-05-12T06:04:33;102033.89;;;9.40;66.28
59545;BME280;45368;55.002;-1.592;2023-05-12T06:07:00;102036.02;;;8.87;67.12
59545;BME280;45368;55.002;-1.592;2023-05-12T06:09:27;102036.18;;;8.00;68.34
59545;BME280;45368;55.002;-1.592;2023-05-12T06:11:53;102045.12;;;8.24;69.03
59545;BME280;45368;55.002;-1.592;2023-05-12T06:14:20;102045.39;;;8.64;68.31
59545;BME280;45368;55.002;-1.592;2023-05-12T06:16:47;102043.25;;;9.09;67.17
59545;BME280;45368;55.002;-1.592;2023-05-12T06:19:15;102052.72;;;8.58;67.67
59545;BME280;45368;55.002;-1.592;2023-05-12T06:21:42;102052.74;;;9.54;64.93
59545;BME280;45368;55.002;-1.592;2023-05-12T06:24:09;102056.40;;;9.90;65.10
59545;BME280;45368;55.002;-1.592;2023-05-12T06:26:36;102055.42;;;9.87;64.19
59545;BME280;45368;55.002;-1.592;2023-05-12T06:29:05;102060.02;;;9.95;63.41
59545;BME280;45368;55.002;-1.592;2023-05-12T06:31:33;102062.63;;;9.80;64.67
59545;BME280;45368;55.002;-1.592;2023-05-12T06:34:00;102067.87;;;9.36;65.54
59545;BME280;45368;55.002;-1.592;2023-05-12T06:36:27;102073.22;;;7.75;69.03
59545;BME280;45368;55.002;-1.592;2023-05-12T06:38:54;102074.32;;;8.61;67.81
59545;BME280;45368;55.002;-1.592;2023-05-12T06:41:20;102079.90;;;8.60;68.20
59545;BME280;45368;55.002;-1.592;2023-05-12T06:43:47;102078.52;;;9.24;66.21
59545;BME280;45368;55.002;-1.592;2023-05-12T06:46:14;102084.14;;;8.48;66.93
59545;BME280;45368;55.002;-1.592;2023-05-12T06:48:41;102080.38;;;8.48;68.38
59545;BME280;45368;55.002;-1.592;2023-05-12T06:51:08;102077.31;;;9.08;66.96
59545;BME280;45368;55.002;-1.592;2023-05-12T06:53:35;102072.20;;;9.48;66.14
59545;BME280;45368;55.002;-1.592;2023-05-12T06:56:02;102080.36;;;9.08;66.88
59545;BME280;45368;55.002;-1.592;2023-05-12T06:58:30;102076.40;;;9.31;67.09
59545;BME280;45368;55.002;-1.592;2023-05-12T07:00:57;102080.40;;;9.15;67.93
59545;BME280;45368;55.002;-1.592;2023-05-12T07:03:24;102078.71;;;9.08;67.59
59545;BME280;45368;55.002;-1.592;2023-05-12T07:05:51;102080.62;;;8.88;68.13
59545;BME280;45368;55.002;-1.592;2023-05-12T07:08:18;102082.92;;;8.85;68.01
59545;BME280;45368;55.002;-1.592;2023-05-12T07:10:45;102088.26;;;7.91;69.85
59545;BME280;45368;55.002;-1.592;2023-05-12T07:13:12;102093.13;;;9.09;66.59
59545;BME280;45368;55.002;-1.592;2023-05-12T07:15:39;102099.65;;;8.62;67.85
59545;BME280;45368;55.002;-1.592;2023-05-12T07:18:06;102103.82;;;8.06;69.44
59545;BME280;45368;55.002;-1.592;2023-05-12T07:20:33;102105.34;;;8.49;68.77
59545;BME280;45368;55.002;-1.592;2023-05-12T07:22:59;102106.48;;;8.10;70.75
59545;BME280;45368;55.002;-1.592;2023-05-12T07:25:27;102105.03;;;8.36;69.22
59545;BME280;45368;55.002;-1.592;2023-05-12T07:27:54;102111.20;;;8.80;68.71
59545;BME280;45368;55.002;-1.592;2023-05-12T07:30:22;102109.58;;;9.47;65.70
59545;BME280;45368;55.002;-1.592;2023-05-12T07:32:49;102113.65;;;9.53;64.73
59545;BME280;45368;55.002;-1.592;2023-05-12T07:35:16;102123.75;;;10.08;64.12
59545;BME280;45368;55.002;-1.592;2023-05-12T07:37:43;102123.42;;;9.86;63.60
59545;BME280;45368;55.002;-1.592;2023-05-12T07:40:10;102129.50;;;9.99;64.45
59545;BME280;45368;55.002;-1.592;2023-05-12T07:42:38;102131.22;;;9.23;64.89
59545;BME280;45368;55.002;-1.592;2023-05-12T07:45:05;102129.90;;;9.38;64.98
59545;BME280;45368;55.002;-1.592;2023-05-12T07:47:32;102130.40;;;9.11;65.60
59545;BME280;45368;55.002;-1.592;2023-05-12T07:49:59;102128.46;;;9.24;65.41
59545;BME280;45368;55.002;-1.592;2023-05-12T07:52:27;102130.90;;;9.59;65.12
59545;BME280;45368;55.002;-1.592;2023-05-12T07:54:55;102134.91;;;9.79;64.43
59545;BME280;45368;55.002;-1.592;2023-05-12T07:57:22;102135.91;;;9.01;67.40
59545;BME280;45368;55.002;-1.592;2023-05-12T07:59:50;102140.73;;;8.60;67.69
59545;BME280;45368;55.002;-1.592;2023-05-12T08:02:16;102144.14;;;8.28;68.95
59545;BME280;45368;55.002;-1.592;2023-05-12T08:04:43;102140.03;;;8.82;68.06
59545;BME280;45368;55.002;-1.592;2023-05-12T08:07:10;102141.35;;;8.59;68.38
59545;BME280;45368;55.002;-1.592;2023-05-12T08:09:38;102140.18;;;8.78;68.06
59545;BME280;45368;55.002;-1.592;2023-05-12T08:12:05;102136.89;;;9.30;67.19
59545;BME280;45368;55.002;-1.592;2023-05-12T08:14:33;102139.07;;;8.83;67.89
59545;BME280;45368;55.002;-1.592;2023-05-12T08:16:59;102134.26;;;9.16;67.47
59545;BME280;45368;55.002;-1.592;2023-05-12T08:19:27;102133.91;;;9.51;66.51
59545;BME280;45368;55.002;-1.592;2023-05-12T08:21:54;102141.42;;;8.76;68.18
59545;BME280;45368;55.002;-1.592;2023-05-12T08:24:21;102136.01;;;8.96;67.12
59545;BME280;45368;55.002;-1.592;2023-05-12T08:26:48;102134.68;;;9.62;66.19
59545;BME280;45368;55.002;-1.592;2023-05-12T08:29:16;102133.35;;;8.74;67.08
59545;BME280;45368;55.002;-1.592;2023-05-12T08:31:43;102128.51;;;8.75;66.55
59545;BME280;45368;55.002;-1.592;2023-05-12T08:34:09;102131.79;;;10.12;65.12
59545;BME280;45368;55.002;-1.592;2023-05-12T08:36:36;102139.76;;;9.27;66.58
59545;BME280;45368;55.002;-1.592;2023-05-12T08:39:04;102140.36;;;9.79;65.43
59545;BME280;45368;55.002;-1.592;2023-05-12T08:41:41;102143.55;;;9.21;65.68
59545;BME280;45368;55.002;-1.592;2023-05-12T08:44:09;102148.23;;;9.94;64.39
59545;BME280;45368;55.002;-1.592;2023-05-12T08:46:37;102147.39;;;9.40;65.02
59545;BME280;45368;55.002;-1.592;2023-05-12T08:49:05;102148.46;;;9.26;65.08
59545;BME280;45368;55.002;-1.592;2023-05-12T08:51:37;102151.51;;;9.42;64.27
59545;BME280;45368;55.002;-1.592;2023-05-12T08:54:07;102147.81;;;9.54;64.18
59545;BME280;45368;55.002;-1.592;2023-05-12T08:56:35;102147.54;;;9.27;64.75
59545;BME280;45368;55.002;-1.592;2023-05-12T08:59:03;102147.83;;;9.42;65.24
59545;BME280;45368;55.002;-1.592;2023-05-12T09:01:34;102145.24;;;9.70;65.53
59545;BME280;45368;55.002;-1.592;2023-05-12T09:04:01;102146.19;;;8.58;67.94
59545;BME280;45368;55.002;-1.592;2023-05-12T09:06:29;102145.70;;;8.76;66.73
59545;BME280;45368;55.002;-1.592;2023-05-12T09:08:56;102146.93;;;8.26;68.97
59545;BME280;45368;55.002;-1.592;2023-05-12T09:11:23;102152.37;;;8.77;67.55
59545;BME280;45368;55.002;-1.592;2023-05-12T09:13:57;102157.75;;;8.07;69.39
59545;BME280;45368;55.002;-1.592;2023-05-12T09:16:28;102160.66;;;8.10;68.79
59545;BME280;45368;55.002;-1.592;2023-05-12T09:18:58;102163.63;;;8.44;68.28
59545;BME280;45368;55.002;-1.592;2023-05-12T09:21:26;102166.06;;;7.59;70.21
59545;BME280;45368;55.002;-1.592;2023-05-12T09:23:56;102161.01;;;8.58;68.46
59545;BME280;45368;55.002;-1.592;2023-05-12T09:26:24;102169.17;;;8.70;68.81
59545;BME280;45368;55.002;-1.592;2023-05-12T09:28:53;102163.31;;;8.99;67.65
59545;BME280;45368;55.002;-1.592;2023-05-12T09:31:22;102165.55;;;8.12;69.42
59545;BME280;45368;55.002;-1.592;2023-05-12T09:33:50;102165.38;;;8.85;68.24
59545;BME280;45368;55.002;-1.592;2023-05-12T09:36:18;102165.65;;;8.72;68.52
59545;BME280;45368;55.002;-1.592;2023-05-12T09:38:45;102166.95;;;8.21;69.30
59545;BME280;45368;55.002;-1.592;2023-05-12T09:41:12;102168.52;;;8.52;68.79
59545;BME280;45368;55.002;-1.592;2023-05-12T09:43:44;102164.54;;;8.44;68.58
59545;BME280;45368;55.002;-1.592;2023-05-12T09:46:11;102166.70;;;7.83;69.66
59545;BME280;45368;55.002;-1.592;2023-05-12T09:48:38;102167.13;;;8.18;68.76
59545;BME280;45368;55.002;-1.592;2023-05-12T09:51:09;102167.47;;;8.30;68.28
59545;BME280;45368;55.002;-1.592;2023-05-12T09:53:40;102167.75;;;8.16;69.00
59545;BME280;45368;55.002;-1.592;2023-05-12T09:56:07;102168.00;;;8.29;68.35
59545;BME280;45368;55.002;-1.592;2023-05-12T09:58:35;102167.89;;;7.71;69.20
59545;BME280;45368;55.002;-1.592;2023-05-12T10:01:03;102167.59;;;9.61;64.70
59545;BME280;45368;55.002;-1.592;2023-05-12T10:03:32;102166.20;;;9.90;64.22
59545;BME280;45368;55.002;-1.592;2023-05-12T10:06:02;102170.24;;;9.19;65.56
59545;BME280;45368;55.002;-1.592;2023-05-12T10:08:33;102169.78;;;10.45;63.25
59545;BME280;45368;55.002;-1.592;2023-05-12T10:11:01;102170.52;;;9.72;64.33
59545;BME280;45368;55.002;-1.592;2023-05-12T10:13:31;102174.75;;;9.55;64.38
59545;BME280;45368;55.002;-1.592;2023-05-12T10:15:59;102173.55;;;8.58;67.56
59545;BME280;45368;55.002;-1.592;2023-05-12T10:18:27;102172.82;;;9.14;65.35
59545;BME280;45368;55.002;-1.592;2023-05-12T10:20:55;102170.62;;;10.47;63.13
59545;BME280;45368;55.002;-1.592;2023-05-12T10:23:24;102174.01;;;9.99;63.93
59545;BME280;45368;55.002;-1.592;2023-05-12T10:25:53;102173.33;;;10.46;62.12
59545;BME280;45368;55.002;-1.592;2023-05-12T10:28:21;102175.43;;;10.73;61.72
59545;BME280;45368;55.002;-1.592;2023-05-12T10:30:48;102180.55;;;10.78;62.01
59545;BME280;45368;55.002;-1.592;2023-05-12T10:33:15;102182.45;;;11.16;61.12
59545;BME280;45368;55.002;-1.592;2023-05-12T10:35:43;102179.04;;;10.61;62.70
59545;BME280;45368;55.002;-1.592;2023-05-12T10:38:13;102178.08;;;11.28;61.05
59545;BME280;45368;55.002;-1.592;2023-05-12T10:40:51;102179.65;;;10.83;61.60
59545;BME280;45368;55.002;-1.592;2023-05-12T10:43:22;102182.87;;;10.27;62.88
59545;BME280;45368;55.002;-1.592;2023-05-12T10:46:07;102180.81;;;10.92;62.52
59545;BME280;45368;55.002;-1.592;2023-05-12T10:48:35;102181.55;;;10.85;62.26
59545;BME280;45368;55.002;-1.592;2023-05-12T10:51:07;102179.84;;;10.97;62.11
59545;BME280;45368;55.002;-1.592;2023-05-12T10:53:35;102184.48;;;10.33;63.33
59545;BME280;45368;55.002;-1.592;2023-05-12T10:56:03;102193.61;;;9.52;65.18
59545;BME280;45368;55.002;-1.592;2023-05-12T10:58:31;102188.79;;;9.98;63.84
59545;BME280;45368;55.002;-1.592;2023-05-12T11:01:04;102190.29;;;10.18;64.60
59545;BME280;45368;55.002;-1.592;2023-05-12T11:03:32;102189.26;;;9.58;66.46
59545;BME280;45368;55.002;-1.592;2023-05-12T11:06:01;102189.97;;;10.08;64.53
59545;BME280;45368;55.002;-1.592;2023-05-12T11:08:29;102190.86;;;10.65;62.55
59545;BME280;45368;55.002;-1.592;2023-05-12T11:10:56;102190.32;;;11.16;61.90
59545;BME280;45368;55.002;-1.592;2023-05-12T11:13:24;102197.81;;;10.11;63.75
59545;BME280;45368;55.002;-1.592;2023-05-12T11:15:52;102188.22;;;10.73;62.69
59545;BME280;45368;55.002;-1.592;2023-05-12T11:18:20;102190.46;;;10.53;62.75
59545;BME280;45368;55.002;-1.592;2023-05-12T11:20:47;102190.25;;;11.31;61.74
59545;BME280;45368;55.002;-1.592;2023-05-12T11:23:23;102194.89;;;10.66;62.00
59545;BME280;45368;55.002;-1.592;2023-05-12T11:25:50;102202.76;;;10.20;63.65
59545;BME280;45368;55.002;-1.592;2023-05-12T11:28:17;102200.34;;;10.71;62.73
59545;BME280;45368;55.002;-1.592;2023-05-12T11:30:49;102206.05;;;10.84;61.68
59545;BME280;45368;55.002;-1.592;2023-05-12T11:33:19;102208.66;;;10.24;63.01
59545;BME280;45368;55.002;-1.592;2023-05-12T11:35:46;102209.78;;;10.15;62.90
59545;BME280;45368;55.002;-1.592;2023-05-12T11:38:14;102203.45;;;10.46;62.54
59545;BME280;45368;55.002;-1.592;2023-05-12T11:40:42;102205.84;;;10.72;62.51
59545;BME280;45368;55.002;-1.592;2023-05-12T11:43:10;102204.42;;;10.92;61.56
59545;BME280;45368;55.002;-1.592;2023-05-12T11:45:38;102218.72;;;9.68;64.85
59545;BME280;45368;55.002;-1.592;2023-05-12T11:48:06;102216.70;;;9.95;64.06
59545;BME280;45368;55.002;-1.592;2023-05-12T11:50:36;102213.89;;;11.16;62.03
59545;BME280;45368;55.002;-1.592;2023-05-12T11:53:04;102219.16;;;9.41;65.88
59545;BME280;45368;55.002;-1.592;2023-05-12T11:55:31;102219.50;;;9.91;64.61
59545;BME280;45368;55.002;-1.592;2023-05-12T11:58:00;102213.50;;;10.85;62.11
59545;BME280;45368;55.002;-1.592;2023-05-12T12:00:30;102219.47;;;10.39;63.06
59545;BME280;45368;55.002;-1.592;2023-05-12T12:03:06;102224.29;;;9.99;64.06
59545;BME280;45368;55.002;-1.592;2023-05-12T12:05:34;102225.60;;;10.10;63.96
59545;BME280;45368;55.002;-1.592;2023-05-12T12:08:09;102226.32;;;10.65;63.76
59545;BME280;45368;55.002;-1.592;2023-05-12T12:10:37;102228.67;;;10.13;64.00
59545;BME280;45368;55.002;-1.592;2023-05-12T12:13:05;102236.66;;;9.76;64.83
59545;BME280;45368;55.002;-1.592;2023-05-12T12:15:32;102235.83;;;9.69;65.42
59545;BME280;45368;55.002;-1.592;2023-05-12T12:17:59;102232.29;;;10.52;63.14
59545;BME280;45368;55.002;-1.592;2023-05-12T12:20:26;102234.47;;;10.56;63.03
59545;BME280;45368;55.002;-1.592;2023-05-12T12:22:54;102244.45;;;8.71;67.62
59545;BME280;45368;55.002;-1.592;2023-05-12T12:25:27;102241.54;;;9.87;65.39
59545;BME280;45368;55.002;-1.592;2023-05-12T12:27:54;102248.39;;;9.72;66.28
59545;BME280;45368;55.002;-1.592;2023-05-12T12:30:21;102248.93;;;9.23;67.40
59545;BME280;45368;55.002;-1.592;2023-05-12T12:32:48;102249.63;;;10.06;65.80
59545;BME280;45368;55.002;-1.592;2023-05-12T12:35:15;102250.97;;;10.56;64.35
59545;BME280;45368;55.002;-1.592;2023-05-12T12:37:44;102252.77;;;10.46;63.86
59545;BME280;45368;55.002;-1.592;2023-05-12T12:40:11;102255.15;;;10.66;63.33
59545;BME280;45368;55.002;-1.592;2023-05-12T12:42:38;102253.64;;;10.57;63.46
59545;BME280;45368;55.002;-1.592;2023-05-12T12:45:06;102259.98;;;9.38;66.76
59545;BME280;45368;55.002;-1.592;2023-05-12T12:47:34;102262.08;;;9.19;66.79